sensor_id;sensor_type;location;lat;lon;timestamp;P1;durP1;ratioP1;P2;durP2;ratioP2
71836;SDS011;59686;51.716;7.016;2022-08-18T00:00:14;16.63;;;15.15;;
71836;SDS011;59686;51.716;7.016;2022-08-18T00:02:40;15.43;;;14.13;;
71836;SDS011;59686;51.716;7.016;2022-08-18T00:05:09;17.25;;;15.75;;
71836;SDS011;59686;51.716;7.016;2022-08-18T00:07:37;16.48;;;15.07;;
71836;SDS011;59686;51.716;7.016;2022-08-18T00:10:04;17.10;;;15.45;;
71836;SDS011;59686;51.716;7.016;2022-08-18T00:12:33;16.48;;;15.07;;
71836;SDS011;59686;51.716;7.016;2022-08-18T00:15:01;16.85;;;15.45;;
71836;SDS011;59686;51.716;7.016;2022-08-18T00:17:30;16.00;;;14.60;;
71836;SDS011;59686;51.716;7.016;2022-08-18T00:19:57;16.45;;;14.95;;
71836;SDS011;59686;51.716;7.016;2022-08-18T00:22:23;16.50;;;15.00;;
71836;SDS011;59686;51.716;7.016;2022-08-18T00:24:51;16.70;;;15.20;;
71836;SDS011;59686;51.716;7.016;2022-08-18T00:27:19;15.63;;;14.32;;
71836;SDS011;59686;51.716;7.016;2022-08-18T00:29:47;15.57;;;14.18;;
71836;SDS011;59686;51.716;7.016;2022-08-18T00:32:14;16.27;;;14.90;;
71836;SDS011;59686;51.716;7.016;2022-08-18T00:34:41;16.73;;;15.27;;
71836;SDS011;59686;51.716;7.016;2022-08-18T00:37:07;16.05;;;14.60;;
71836;SDS011;59686;51.716;7.016;2022-08-18T00:39:33;16.52;;;15.13;;
71836;SDS011;59686;51.716;7.016;2022-08-18T00:41:59;16.52;;;14.98;;
71836;SDS011;59686;51.716;7.016;2022-08-18T00:44:35;17.15;;;15.45;;
71836;SDS011;59686;51.716;7.016;2022-08-18T00:47:01;16.52;;;15.07;;
71836;SDS011;59686;51.716;7.016;2022-08-18T00:49:27;17.10;;;15.55;;
71836;SDS011;59686;51.716;7.016;2022-08-18T00:51:53;16.95;;;15.45;;
71836;SDS011;59686;51.716;7.016;2022-08-18T00:54:22;18.02;;;16.52;;
71836;SDS011;59686;51.716;7.016;2022-08-18T00:56:51;17.48;;;15.98;;
71836;SDS011;59686;51.716;7.016;2022-08-18T00:59:26;17.48;;;15.77;;
71836;SDS011;59686;51.716;7.016;2022-08-18T01:02:05;15.80;;;14.38;;
71836;SDS011;59686;51.716;7.016;2022-08-18T01:07:09;14.50;;;13.30;;
71836;SDS011;59686;51.716;7.016;2022-08-18T01:09:40;15.75;;;14.32;;
71836;SDS011;59686;51.716;7.016;2022-08-18T01:12:05;15.27;;;13.95;;
71836;SDS011;59686;51.716;7.016;2022-08-18T01:14:32;16.50;;;15.10;;
71836;SDS011;59686;51.716;7.016;2022-08-18T01:16:58;16.25;;;14.82;;
71836;SDS011;59686;51.716;7.016;2022-08-18T01:19:42;15.93;;;14.52;;
71836;SDS011;59686;51.716;7.016;2022-08-18T01:22:28;15.68;;;14.38;;
71836;SDS011;59686;51.716;7.016;2022-08-18T01:25:19;16.55;;;15.10;;
71836;SDS011;59686;51.716;7.016;2022-08-18T01:28:04;15.88;;;14.52;;
71836;SDS011;59686;51.716;7.016;2022-08-18T01:30:31;16.33;;;14.82;;
71836;SDS011;59686;51.716;7.016;2022-08-18T01:33:08;15.65;;;14.25;;
71836;SDS011;59686;51.716;7.016;2022-08-18T01:35:36;16.60;;;15.10;;
71836;SDS011;59686;51.716;7.016;2022-08-18T01:38:05;16.45;;;14.98;;
71836;SDS011;59686;51.716;7.016;2022-08-18T01:43:19;16.65;;;15.15;;
71836;SDS011;59686;51.716;7.016;2022-08-18T01:45:45;18.50;;;16.75;;
71836;SDS011;59686;51.716;7.016;2022-08-18T01:48:11;15.70;;;14.40;;
71836;SDS011;59686;51.716;7.016;2022-08-18T01:50:38;16.33;;;14.63;;
71836;SDS011;59686;51.716;7.016;2022-08-18T01:53:06;17.00;;;15.50;;
71836;SDS011;59686;51.716;7.016;2022-08-18T01:55:33;15.80;;;14.38;;
71836;SDS011;59686;51.716;7.016;2022-08-18T01:57:59;15.40;;;14.02;;
71836;SDS011;59686;51.716;7.016;2022-08-18T02:00:26;18.35;;;16.67;;
71836;SDS011;59686;51.716;7.016;2022-08-18T02:02:52;16.83;;;15.32;;
71836;SDS011;59686;51.716;7.016;2022-08-18T02:05:20;16.63;;;15.13;;
71836;SDS011;59686;51.716;7.016;2022-08-18T02:07:55;17.33;;;15.63;;
71836;SDS011;59686;51.716;7.016;2022-08-18T02:10:20;17.65;;;15.95;;
71836;SDS011;59686;51.716;7.016;2022-08-18T02:12:46;18.23;;;16.52;;
71836;SDS011;59686;51.716;7.016;2022-08-18T02:15:12;18.35;;;16.58;;
71836;SDS011;59686;51.716;7.016;2022-08-18T02:17:38;17.95;;;16.25;;
71836;SDS011;59686;51.716;7.016;2022-08-18T02:20:06;18.58;;;16.88;;
71836;SDS011;59686;51.716;7.016;2022-08-18T02:22:33;19.58;;;17.77;;
71836;SDS011;59686;51.716;7.016;2022-08-18T02:25:00;19.13;;;17.33;;
71836;SDS011;59686;51.716;7.016;2022-08-18T02:27:26;18.92;;;17.23;;
71836;SDS011;59686;51.716;7.016;2022-08-18T02:29:52;19.33;;;17.52;;
71836;SDS011;59686;51.716;7.016;2022-08-18T02:32:18;18.75;;;16.88;;
71836;SDS011;59686;51.716;7.016;2022-08-18T02:34:44;18.27;;;16.55;;
71836;SDS011;59686;51.716;7.016;2022-08-18T02:37:10;20.40;;;18.42;;
71836;SDS011;59686;51.716;7.016;2022-08-18T02:39:36;20.25;;;18.33;;
71836;SDS011;59686;51.716;7.016;2022-08-18T02:42:03;20.98;;;18.85;;
71836;SDS011;59686;51.716;7.016;2022-08-18T02:44:30;18.85;;;17.00;;
71836;SDS011;59686;51.716;7.016;2022-08-18T02:46:56;21.67;;;19.48;;
71836;SDS011;59686;51.716;7.016;2022-08-18T02:49:22;21.27;;;19.17;;
71836;SDS011;59686;51.716;7.016;2022-08-18T02:51:49;21.52;;;19.33;;
71836;SDS011;59686;51.716;7.016;2022-08-18T02:54:17;22.83;;;20.50;;
71836;SDS011;59686;51.716;7.016;2022-08-18T02:56:44;22.55;;;20.30;;
71836;SDS011;59686;51.716;7.016;2022-08-18T02:59:21;20.83;;;18.60;;
71836;SDS011;59686;51.716;7.016;2022-08-18T03:01:49;22.95;;;20.65;;
71836;SDS011;59686;51.716;7.016;2022-08-18T03:04:24;22.63;;;20.33;;
71836;SDS011;59686;51.716;7.016;2022-08-18T03:06:56;25.92;;;23.27;;
71836;SDS011;59686;51.716;7.016;2022-08-18T03:09:27;26.05;;;22.48;;
71836;SDS011;59686;51.716;7.016;2022-08-18T03:11:53;23.90;;;21.40;;
71836;SDS011;59686;51.716;7.016;2022-08-18T03:14:19;22.55;;;20.25;;
71836;SDS011;59686;51.716;7.016;2022-08-18T03:16:50;24.33;;;21.83;;
71836;SDS011;59686;51.716;7.016;2022-08-18T03:19:16;24.05;;;21.58;;
71836;SDS011;59686;51.716;7.016;2022-08-18T03:21:43;26.45;;;23.75;;
71836;SDS011;59686;51.716;7.016;2022-08-18T03:24:11;23.77;;;21.30;;
71836;SDS011;59686;51.716;7.016;2022-08-18T03:26:41;24.75;;;20.95;;
71836;SDS011;59686;51.716;7.016;2022-08-18T03:29:09;26.10;;;23.30;;
71836;SDS011;59686;51.716;7.016;2022-08-18T03:31:36;24.55;;;22.08;;
71836;SDS011;59686;51.716;7.016;2022-08-18T03:34:03;24.58;;;22.00;;
71836;SDS011;59686;51.716;7.016;2022-08-18T03:36:31;24.15;;;21.65;;
71836;SDS011;59686;51.716;7.016;2022-08-18T03:38:58;27.35;;;23.35;;
71836;SDS011;59686;51.716;7.016;2022-08-18T03:41:26;27.38;;;23.65;;
71836;SDS011;59686;51.716;7.016;2022-08-18T03:43:53;26.55;;;23.75;;
71836;SDS011;59686;51.716;7.016;2022-08-18T03:46:19;26.40;;;23.25;;
71836;SDS011;59686;51.716;7.016;2022-08-18T03:48:46;26.60;;;23.35;;
71836;SDS011;59686;51.716;7.016;2022-08-18T03:51:22;27.95;;;24.95;;
71836;SDS011;59686;51.716;7.016;2022-08-18T03:53:51;26.75;;;22.95;;
71836;SDS011;59686;51.716;7.016;2022-08-18T03:56:20;24.85;;;22.25;;
71836;SDS011;59686;51.716;7.016;2022-08-18T03:58:48;29.83;;;24.42;;
71836;SDS011;59686;51.716;7.016;2022-08-18T04:01:22;26.83;;;23.85;;
71836;SDS011;59686;51.716;7.016;2022-08-18T04:03:51;25.13;;;22.38;;
71836;SDS011;59686;51.716;7.016;2022-08-18T04:06:22;26.88;;;23.98;;
71836;SDS011;59686;51.716;7.016;2022-08-18T04:08:53;27.23;;;23.23;;
71836;SDS011;59686;51.716;7.016;2022-08-18T04:11:20;28.50;;;24.50;;
71836;SDS011;59686;51.716;7.016;2022-08-18T04:13:47;28.52;;;24.95;;
71836;SDS011;59686;51.716;7.016;2022-08-18T04:16:13;26.08;;;23.33;;
71836;SDS011;59686;51.716;7.016;2022-08-18T04:18:39;29.63;;;24.67;;
71836;SDS011;59686;51.716;7.016;2022-08-18T04:21:06;26.17;;;23.42;;
71836;SDS011;59686;51.716;7.016;2022-08-18T04:23:35;26.15;;;23.35;;
71836;SDS011;59686;51.716;7.016;2022-08-18T04:26:02;27.83;;;23.85;;
71836;SDS011;59686;51.716;7.016;2022-08-18T04:28:30;25.42;;;22.40;;
71836;SDS011;59686;51.716;7.016;2022-08-18T04:30:56;28.80;;;24.80;;
71836;SDS011;59686;51.716;7.016;2022-08-18T04:33:26;25.75;;;22.77;;
71836;SDS011;59686;51.716;7.016;2022-08-18T04:35:55;27.52;;;23.65;;
71836;SDS011;59686;51.716;7.016;2022-08-18T04:38:21;27.10;;;24.25;;
71836;SDS011;59686;51.716;7.016;2022-08-18T04:40:51;27.38;;;23.92;;
71836;SDS011;59686;51.716;7.016;2022-08-18T04:43:17;26.92;;;24.02;;
71836;SDS011;59686;51.716;7.016;2022-08-18T04:45:46;27.00;;;23.45;;
71836;SDS011;59686;51.716;7.016;2022-08-18T04:48:12;27.02;;;23.45;;
71836;SDS011;59686;51.716;7.016;2022-08-18T04:50:40;26.67;;;23.80;;
71836;SDS011;59686;51.716;7.016;2022-08-18T04:53:07;27.48;;;23.65;;
71836;SDS011;59686;51.716;7.016;2022-08-18T04:55:53;27.35;;;23.88;;
71836;SDS011;59686;51.716;7.016;2022-08-18T04:58:20;26.73;;;23.85;;
71836;SDS011;59686;51.716;7.016;2022-08-18T05:00:55;27.58;;;24.15;;
71836;SDS011;59686;51.716;7.016;2022-08-18T05:03:23;27.00;;;24.10;;
71836;SDS011;59686;51.716;7.016;2022-08-18T05:05:51;26.80;;;23.75;;
71836;SDS011;59686;51.716;7.016;2022-08-18T05:08:18;27.65;;;24.70;;
71836;SDS011;59686;51.716;7.016;2022-08-18T05:10:44;26.48;;;23.27;;
71836;SDS011;59686;51.716;7.016;2022-08-18T05:13:11;26.75;;;23.83;;
71836;SDS011;59686;51.716;7.016;2022-08-18T05:15:40;27.27;;;22.95;;
71836;SDS011;59686;51.716;7.016;2022-08-18T05:18:10;27.00;;;24.08;;
71836;SDS011;59686;51.716;7.016;2022-08-18T05:20:36;30.33;;;24.98;;
71836;SDS011;59686;51.716;7.016;2022-08-18T05:23:04;28.58;;;23.48;;
71836;SDS011;59686;51.716;7.016;2022-08-18T05:25:30;27.23;;;24.33;;
71836;SDS011;59686;51.716;7.016;2022-08-18T05:27:56;27.63;;;23.98;;
71836;SDS011;59686;51.716;7.016;2022-08-18T05:30:21;28.92;;;24.25;;
71836;SDS011;59686;51.716;7.016;2022-08-18T05:35:21;28.70;;;23.02;;
71836;SDS011;59686;51.716;7.016;2022-08-18T05:40:23;27.83;;;23.00;;
71836;SDS011;59686;51.716;7.016;2022-08-18T05:42:50;28.20;;;22.92;;
71836;SDS011;59686;51.716;7.016;2022-08-18T05:45:17;28.50;;;23.83;;
71836;SDS011;59686;51.716;7.016;2022-08-18T05:47:44;26.00;;;22.65;;
71836;SDS011;59686;51.716;7.016;2022-08-18T05:50:10;25.48;;;22.73;;
71836;SDS011;59686;51.716;7.016;2022-08-18T05:56:04;26.70;;;22.83;;
71836;SDS011;59686;51.716;7.016;2022-08-18T05:58:50;26.15;;;22.33;;
71836;SDS011;59686;51.716;7.016;2022-08-18T06:01:29;25.58;;;22.58;;
71836;SDS011;59686;51.716;7.016;2022-08-18T06:04:08;27.77;;;23.27;;
71836;SDS011;59686;51.716;7.016;2022-08-18T06:06:55;27.30;;;23.48;;
71836;SDS011;59686;51.716;7.016;2022-08-18T06:09:35;25.73;;;22.20;;
71836;SDS011;59686;51.716;7.016;2022-08-18T06:15:15;28.23;;;23.65;;
71836;SDS011;59686;51.716;7.016;2022-08-18T06:17:55;29.70;;;24.10;;
71836;SDS011;59686;51.716;7.016;2022-08-18T06:29:00;24.88;;;21.90;;
71836;SDS011;59686;51.716;7.016;2022-08-18T06:37:41;25.15;;;22.02;;
71836;SDS011;59686;51.716;7.016;2022-08-18T06:40:40;26.17;;;22.67;;
71836;SDS011;59686;51.716;7.016;2022-08-18T06:43:17;29.83;;;24.00;;
71836;SDS011;59686;51.716;7.016;2022-08-18T06:45:44;27.83;;;23.45;;
71836;SDS011;59686;51.716;7.016;2022-08-18T06:51:02;27.95;;;23.42;;
71836;SDS011;59686;51.716;7.016;2022-08-18T07:02:11;31.42;;;25.73;;
71836;SDS011;59686;51.716;7.016;2022-08-18T07:05:19;33.45;;;27.10;;
71836;SDS011;59686;51.716;7.016;2022-08-18T07:10:35;32.95;;;26.95;;
71836;SDS011;59686;51.716;7.016;2022-08-18T07:13:20;29.45;;;24.38;;
71836;SDS011;59686;51.716;7.016;2022-08-18T07:15:50;34.97;;;25.65;;
71836;SDS011;59686;51.716;7.016;2022-08-18T07:18:25;30.83;;;24.00;;
71836;SDS011;59686;51.716;7.016;2022-08-18T07:21:02;28.63;;;23.80;;
71836;SDS011;59686;51.716;7.016;2022-08-18T07:26:58;26.90;;;22.23;;
71836;SDS011;59686;51.716;7.016;2022-08-18T07:29:27;29.63;;;23.00;;
71836;SDS011;59686;51.716;7.016;2022-08-18T07:32:00;26.60;;;21.30;;
71836;SDS011;59686;51.716;7.016;2022-08-18T07:34:49;26.35;;;21.98;;
71836;SDS011;59686;51.716;7.016;2022-08-18T07:37:23;24.63;;;19.92;;
71836;SDS011;59686;51.716;7.016;2022-08-18T07:40:18;21.50;;;19.02;;
71836;SDS011;59686;51.716;7.016;2022-08-18T07:46:16;20.63;;;17.48;;
71836;SDS011;59686;51.716;7.016;2022-08-18T07:48:47;22.40;;;17.58;;
71836;SDS011;59686;51.716;7.016;2022-08-18T07:51:24;17.95;;;15.68;;
71836;SDS011;59686;51.716;7.016;2022-08-18T08:07:55;15.15;;;13.55;;
71836;SDS011;59686;51.716;7.016;2022-08-18T08:18:24;12.77;;;11.18;;
71836;SDS011;59686;51.716;7.016;2022-08-18T08:21:30;13.80;;;11.93;;
71836;SDS011;59686;51.716;7.016;2022-08-18T08:24:15;13.48;;;12.02;;
71836;SDS011;59686;51.716;7.016;2022-08-18T08:32:32;11.45;;;10.23;;
71836;SDS011;59686;51.716;7.016;2022-08-18T08:35:05;11.10;;;9.80;;
71836;SDS011;59686;51.716;7.016;2022-08-18T08:45:43;9.82;;;8.82;;
71836;SDS011;59686;51.716;7.016;2022-08-18T08:48:29;9.95;;;8.75;;
71836;SDS011;59686;51.716;7.016;2022-08-18T08:53:42;9.60;;;8.60;;
71836;SDS011;59686;51.716;7.016;2022-08-18T08:56:24;8.98;;;8.07;;
71836;SDS011;59686;51.716;7.016;2022-08-18T08:58:56;9.07;;;8.07;;
71836;SDS011;59686;51.716;7.016;2022-08-18T09:01:35;8.95;;;7.70;;
71836;SDS011;59686;51.716;7.016;2022-08-18T09:04:40;8.10;;;7.15;;
71836;SDS011;59686;51.716;7.016;2022-08-18T09:38:09;8.60;;;6.70;;
71836;SDS011;59686;51.716;7.016;2022-08-18T09:41:07;7.90;;;6.38;;
71836;SDS011;59686;51.716;7.016;2022-08-18T09:51:46;7.85;;;6.22;;
71836;SDS011;59686;51.716;7.016;2022-08-18T09:54:19;6.43;;;5.82;;
71836;SDS011;59686;51.716;7.016;2022-08-18T10:04:41;7.43;;;6.22;;
71836;SDS011;59686;51.716;7.016;2022-08-18T10:07:37;9.15;;;6.80;;
71836;SDS011;59686;51.716;7.016;2022-08-18T10:10:09;6.72;;;6.10;;
71836;SDS011;59686;51.716;7.016;2022-08-18T10:29:44;6.25;;;5.70;;
71836;SDS011;59686;51.716;7.016;2022-08-18T10:34:45;6.45;;;5.85;;
71836;SDS011;59686;51.716;7.016;2022-08-18T10:45:50;6.35;;;5.70;;
71836;SDS011;59686;51.716;7.016;2022-08-18T10:48:28;6.85;;;6.15;;
71836;SDS011;59686;51.716;7.016;2022-08-18T10:56:45;6.18;;;5.57;;
71836;SDS011;59686;51.716;7.016;2022-08-18T11:05:06;6.25;;;5.70;;
71836;SDS011;59686;51.716;7.016;2022-08-18T11:07:35;6.38;;;5.78;;
71836;SDS011;59686;51.716;7.016;2022-08-18T11:10:17;5.90;;;5.32;;
71836;SDS011;59686;51.716;7.016;2022-08-18T11:26:40;6.72;;;6.00;;
71836;SDS011;59686;51.716;7.016;2022-08-18T11:29:59;5.82;;;5.32;;
71836;SDS011;59686;51.716;7.016;2022-08-18T11:32:23;5.85;;;5.35;;
71836;SDS011;59686;51.716;7.016;2022-08-18T11:42:53;5.50;;;5.10;;
71836;SDS011;59686;51.716;7.016;2022-08-18T11:56:26;5.60;;;5.10;;
71836;SDS011;59686;51.716;7.016;2022-08-18T12:09:20;5.72;;;5.20;;
71836;SDS011;59686;51.716;7.016;2022-08-18T12:12:13;5.63;;;5.13;;
71836;SDS011;59686;51.716;7.016;2022-08-18T12:14:50;5.70;;;5.20;;
71836;SDS011;59686;51.716;7.016;2022-08-18T12:17:21;5.53;;;5.03;;
71836;SDS011;59686;51.716;7.016;2022-08-18T12:19:48;6.15;;;4.90;;
71836;SDS011;59686;51.716;7.016;2022-08-18T12:22:19;5.40;;;4.93;;
71836;SDS011;59686;51.716;7.016;2022-08-18T12:24:49;5.70;;;5.13;;
71836;SDS011;59686;51.716;7.016;2022-08-18T12:27:17;5.82;;;5.32;;
71836;SDS011;59686;51.716;7.016;2022-08-18T12:29:44;5.70;;;5.00;;
71836;SDS011;59686;51.716;7.016;2022-08-18T12:32:11;5.60;;;5.10;;
71836;SDS011;59686;51.716;7.016;2022-08-18T12:34:37;5.15;;;4.70;;
71836;SDS011;59686;51.716;7.016;2022-08-18T12:39:58;5.47;;;4.97;;
71836;SDS011;59686;51.716;7.016;2022-08-18T12:45:04;5.97;;;5.38;;
71836;SDS011;59686;51.716;7.016;2022-08-18T12:47:34;5.43;;;4.93;;
71836;SDS011;59686;51.716;7.016;2022-08-18T12:50:05;5.13;;;4.72;;
71836;SDS011;59686;51.716;7.016;2022-08-18T12:52:34;5.38;;;4.90;;
71836;SDS011;59686;51.716;7.016;2022-08-18T12:55:01;5.88;;;5.15;;
71836;SDS011;59686;51.716;7.016;2022-08-18T12:57:27;5.10;;;4.70;;
71836;SDS011;59686;51.716;7.016;2022-08-18T12:59:55;5.40;;;4.90;;
71836;SDS011;59686;51.716;7.016;2022-08-18T13:05:03;5.43;;;4.93;;
71836;SDS011;59686;51.716;7.016;2022-08-18T13:07:40;4.80;;;4.40;;
71836;SDS011;59686;51.716;7.016;2022-08-18T13:10:09;4.95;;;4.45;;
71836;SDS011;59686;51.716;7.016;2022-08-18T13:12:47;5.20;;;4.55;;
71836;SDS011;59686;51.716;7.016;2022-08-18T13:17:43;5.50;;;5.00;;
71836;SDS011;59686;51.716;7.016;2022-08-18T13:20:12;5.10;;;4.60;;
71836;SDS011;59686;51.716;7.016;2022-08-18T13:22:42;4.93;;;4.50;;
71836;SDS011;59686;51.716;7.016;2022-08-18T13:25:11;4.82;;;4.43;;
71836;SDS011;59686;51.716;7.016;2022-08-18T13:27:40;5.30;;;4.80;;
71836;SDS011;59686;51.716;7.016;2022-08-18T13:33:02;5.00;;;4.60;;
71836;SDS011;59686;51.716;7.016;2022-08-18T13:35:32;5.60;;;5.10;;
71836;SDS011;59686;51.716;7.016;2022-08-18T13:38:01;6.15;;;5.65;;
71836;SDS011;59686;51.716;7.016;2022-08-18T13:40:32;7.10;;;6.40;;
71836;SDS011;59686;51.716;7.016;2022-08-18T13:43:02;8.25;;;6.25;;
71836;SDS011;59686;51.716;7.016;2022-08-18T13:45:29;7.80;;;6.88;;
71836;SDS011;59686;51.716;7.016;2022-08-18T13:48:10;7.15;;;6.45;;
71836;SDS011;59686;51.716;7.016;2022-08-18T13:50:38;7.45;;;6.00;;
71836;SDS011;59686;51.716;7.016;2022-08-18T13:53:07;6.72;;;6.05;;
71836;SDS011;59686;51.716;7.016;2022-08-18T13:55:51;7.32;;;6.28;;
71836;SDS011;59686;51.716;7.016;2022-08-18T13:58:17;7.15;;;6.32;;
71836;SDS011;59686;51.716;7.016;2022-08-18T14:03:28;6.32;;;5.72;;
71836;SDS011;59686;51.716;7.016;2022-08-18T14:06:00;6.32;;;5.55;;
71836;SDS011;59686;51.716;7.016;2022-08-18T14:08:27;5.53;;;5.03;;
71836;SDS011;59686;51.716;7.016;2022-08-18T14:10:55;7.00;;;5.60;;
71836;SDS011;59686;51.716;7.016;2022-08-18T14:13:23;5.82;;;5.22;;
71836;SDS011;59686;51.716;7.016;2022-08-18T14:15:52;6.13;;;5.10;;
71836;SDS011;59686;51.716;7.016;2022-08-18T14:18:20;7.25;;;5.22;;
71836;SDS011;59686;51.716;7.016;2022-08-18T14:20:46;5.50;;;5.00;;
71836;SDS011;59686;51.716;7.016;2022-08-18T14:23:31;6.00;;;5.40;;
71836;SDS011;59686;51.716;7.016;2022-08-18T14:26:15;5.68;;;5.18;;
71836;SDS011;59686;51.716;7.016;2022-08-18T14:29:14;5.85;;;4.60;;
71836;SDS011;59686;51.716;7.016;2022-08-18T14:31:47;5.18;;;4.68;;
71836;SDS011;59686;51.716;7.016;2022-08-18T14:39:31;5.15;;;4.65;;
71836;SDS011;59686;51.716;7.016;2022-08-18T14:42:02;6.05;;;4.38;;
71836;SDS011;59686;51.716;7.016;2022-08-18T14:44:44;5.25;;;4.78;;
71836;SDS011;59686;51.716;7.016;2022-08-18T14:47:19;5.78;;;5.10;;
71836;SDS011;59686;51.716;7.016;2022-08-18T14:50:00;4.90;;;4.28;;
71836;SDS011;59686;51.716;7.016;2022-08-18T14:52:34;5.25;;;4.75;;
71836;SDS011;59686;51.716;7.016;2022-08-18T14:55:01;5.47;;;4.45;;
71836;SDS011;59686;51.716;7.016;2022-08-18T14:57:26;5.60;;;5.05;;
71836;SDS011;59686;51.716;7.016;2022-08-18T14:59:52;5.03;;;4.53;;
71836;SDS011;59686;51.716;7.016;2022-08-18T15:02:24;6.03;;;4.72;;
71836;SDS011;59686;51.716;7.016;2022-08-18T15:04:58;10.48;;;4.80;;
71836;SDS011;59686;51.716;7.016;2022-08-18T15:07:24;6.00;;;4.75;;
71836;SDS011;59686;51.716;7.016;2022-08-18T15:09:52;5.05;;;4.55;;
71836;SDS011;59686;51.716;7.016;2022-08-18T15:12:36;4.70;;;4.30;;
71836;SDS011;59686;51.716;7.016;2022-08-18T15:15:04;5.05;;;4.47;;
71836;SDS011;59686;51.716;7.016;2022-08-18T15:17:36;6.22;;;4.88;;
71836;SDS011;59686;51.716;7.016;2022-08-18T15:20:04;6.30;;;4.63;;
71836;SDS011;59686;51.716;7.016;2022-08-18T15:22:30;5.30;;;4.75;;
71836;SDS011;59686;51.716;7.016;2022-08-18T15:25:15;6.85;;;4.50;;
71836;SDS011;59686;51.716;7.016;2022-08-18T15:28:22;4.82;;;4.43;;
71836;SDS011;59686;51.716;7.016;2022-08-18T15:30:50;5.13;;;4.00;;
71836;SDS011;59686;51.716;7.016;2022-08-18T15:33:17;4.60;;;4.20;;
71836;SDS011;59686;51.716;7.016;2022-08-18T15:35:44;5.00;;;4.60;;
71836;SDS011;59686;51.716;7.016;2022-08-18T15:38:19;4.97;;;4.47;;
71836;SDS011;59686;51.716;7.016;2022-08-18T15:40:58;4.90;;;4.30;;
71836;SDS011;59686;51.716;7.016;2022-08-18T15:43:25;4.95;;;4.15;;
71836;SDS011;59686;51.716;7.016;2022-08-18T15:45:55;4.78;;;4.38;;
71836;SDS011;59686;51.716;7.016;2022-08-18T15:48:23;4.72;;;4.20;;
71836;SDS011;59686;51.716;7.016;2022-08-18T15:50:50;5.55;;;4.20;;
71836;SDS011;59686;51.716;7.016;2022-08-18T15:53:18;4.97;;;3.80;;
71836;SDS011;59686;51.716;7.016;2022-08-18T15:55:46;4.30;;;3.70;;
71836;SDS011;59686;51.716;7.016;2022-08-18T15:58:18;4.85;;;3.95;;
71836;SDS011;59686;51.716;7.016;2022-08-18T16:00:45;5.03;;;3.85;;
71836;SDS011;59686;51.716;7.016;2022-08-18T16:03:12;5.07;;;4.00;;
71836;SDS011;59686;51.716;7.016;2022-08-18T16:05:40;4.25;;;3.85;;
71836;SDS011;59686;51.716;7.016;2022-08-18T16:08:15;4.53;;;3.90;;
71836;SDS011;59686;51.716;7.016;2022-08-18T16:10:46;6.05;;;4.20;;
71836;SDS011;59686;51.716;7.016;2022-08-18T16:13:12;4.07;;;3.78;;
71836;SDS011;59686;51.716;7.016;2022-08-18T16:15:40;4.85;;;4.28;;
71836;SDS011;59686;51.716;7.016;2022-08-18T16:18:08;6.80;;;4.10;;
71836;SDS011;59686;51.716;7.016;2022-08-18T16:20:37;6.07;;;4.10;;
71836;SDS011;59686;51.716;7.016;2022-08-18T16:23:03;5.07;;;4.28;;
71836;SDS011;59686;51.716;7.016;2022-08-18T16:25:30;5.20;;;4.70;;
71836;SDS011;59686;51.716;7.016;2022-08-18T16:27:57;6.78;;;4.72;;
71836;SDS011;59686;51.716;7.016;2022-08-18T16:30:28;4.47;;;4.05;;
71836;SDS011;59686;51.716;7.016;2022-08-18T16:32:53;5.63;;;3.78;;
71836;SDS011;59686;51.716;7.016;2022-08-18T16:35:25;4.38;;;3.97;;
71836;SDS011;59686;51.716;7.016;2022-08-18T16:37:51;4.63;;;3.85;;
71836;SDS011;59686;51.716;7.016;2022-08-18T16:40:17;6.18;;;4.03;;
71836;SDS011;59686;51.716;7.016;2022-08-18T16:42:43;4.72;;;3.80;;
71836;SDS011;59686;51.716;7.016;2022-08-18T16:45:17;4.30;;;3.95;;
71836;SDS011;59686;51.716;7.016;2022-08-18T16:47:43;3.97;;;3.67;;
71836;SDS011;59686;51.716;7.016;2022-08-18T16:50:10;4.72;;;3.78;;
71836;SDS011;59686;51.716;7.016;2022-08-18T16:52:37;5.82;;;3.60;;
71836;SDS011;59686;51.716;7.016;2022-08-18T16:55:20;4.50;;;3.83;;
71836;SDS011;59686;51.716;7.016;2022-08-18T16:57:46;4.35;;;3.30;;
71836;SDS011;59686;51.716;7.016;2022-08-18T17:00:31;4.10;;;3.30;;
71836;SDS011;59686;51.716;7.016;2022-08-18T17:03:16;4.35;;;3.10;;
71836;SDS011;59686;51.716;7.016;2022-08-18T17:06:02;4.72;;;3.28;;
71836;SDS011;59686;51.716;7.016;2022-08-18T17:08:36;3.72;;;3.15;;
71836;SDS011;59686;51.716;7.016;2022-08-18T17:11:04;3.90;;;2.78;;
71836;SDS011;59686;51.716;7.016;2022-08-18T17:13:33;4.68;;;3.33;;
71836;SDS011;59686;51.716;7.016;2022-08-18T17:16:00;11.70;;;3.40;;
71836;SDS011;59686;51.716;7.016;2022-08-18T17:18:27;11.98;;;3.42;;
71836;SDS011;59686;51.716;7.016;2022-08-18T17:20:54;15.18;;;3.92;;
71836;SDS011;59686;51.716;7.016;2022-08-18T17:23:24;9.57;;;3.78;;
71836;SDS011;59686;51.716;7.016;2022-08-18T17:25:50;8.32;;;3.60;;
71836;SDS011;59686;51.716;7.016;2022-08-18T17:28:17;8.52;;;3.38;;
71836;SDS011;59686;51.716;7.016;2022-08-18T17:30:45;5.70;;;3.42;;
71836;SDS011;59686;51.716;7.016;2022-08-18T17:33:17;6.22;;;3.38;;
71836;SDS011;59686;51.716;7.016;2022-08-18T17:35:47;5.45;;;3.60;;
71836;SDS011;59686;51.716;7.016;2022-08-18T17:38:27;6.82;;;3.20;;
71836;SDS011;59686;51.716;7.016;2022-08-18T17:41:19;5.07;;;3.40;;
71836;SDS011;59686;51.716;7.016;2022-08-18T17:43:45;6.25;;;3.28;;
71836;SDS011;59686;51.716;7.016;2022-08-18T17:46:16;3.63;;;3.28;;
71836;SDS011;59686;51.716;7.016;2022-08-18T17:48:52;4.97;;;3.00;;
71836;SDS011;59686;51.716;7.016;2022-08-18T17:51:47;6.97;;;3.28;;
71836;SDS011;59686;51.716;7.016;2022-08-18T17:54:49;5.88;;;3.42;;
71836;SDS011;59686;51.716;7.016;2022-08-18T17:57:25;4.75;;;3.47;;
71836;SDS011;59686;51.716;7.016;2022-08-18T18:00:00;5.50;;;3.20;;
71836;SDS011;59686;51.716;7.016;2022-08-18T18:02:33;3.60;;;3.20;;
71836;SDS011;59686;51.716;7.016;2022-08-18T18:05:00;4.32;;;3.53;;
71836;SDS011;59686;51.716;7.016;2022-08-18T18:10:09;4.93;;;3.00;;
71836;SDS011;59686;51.716;7.016;2022-08-18T18:12:38;6.13;;;3.60;;
71836;SDS011;59686;51.716;7.016;2022-08-18T18:15:06;3.50;;;3.15;;
71836;SDS011;59686;51.716;7.016;2022-08-18T18:17:36;3.50;;;3.20;;
71836;SDS011;59686;51.716;7.016;2022-08-18T18:23:30;4.28;;;2.97;;
71836;SDS011;59686;51.716;7.016;2022-08-18T18:31:36;3.83;;;3.00;;
71836;SDS011;59686;51.716;7.016;2022-08-18T18:34:04;3.90;;;3.28;;
71836;SDS011;59686;51.716;7.016;2022-08-18T18:36:46;3.67;;;3.28;;
71836;SDS011;59686;51.716;7.016;2022-08-18T18:39:18;4.00;;;3.15;;
71836;SDS011;59686;51.716;7.016;2022-08-18T18:44:52;3.40;;;3.00;;
71836;SDS011;59686;51.716;7.016;2022-08-18T18:59:38;3.70;;;2.92;;
71836;SDS011;59686;51.716;7.016;2022-08-18T19:05:10;4.75;;;2.92;;
71836;SDS011;59686;51.716;7.016;2022-08-18T19:13:29;3.40;;;2.88;;
71836;SDS011;59686;51.716;7.016;2022-08-18T19:16:10;3.13;;;2.83;;
71836;SDS011;59686;51.716;7.016;2022-08-18T19:18:46;4.32;;;2.90;;
71836;SDS011;59686;51.716;7.016;2022-08-18T19:21:18;3.50;;;3.20;;
71836;SDS011;59686;51.716;7.016;2022-08-18T19:23:55;5.63;;;3.97;;
71836;SDS011;59686;51.716;7.016;2022-08-18T19:26:30;7.22;;;3.22;;
71836;SDS011;59686;51.716;7.016;2022-08-18T19:29:44;7.75;;;3.78;;
71836;SDS011;59686;51.716;7.016;2022-08-18T19:32:04;8.77;;;4.30;;
71836;SDS011;59686;51.716;7.016;2022-08-18T19:34:41;10.95;;;3.88;;
71836;SDS011;59686;51.716;7.016;2022-08-18T19:40:24;7.05;;;3.75;;
71836;SDS011;59686;51.716;7.016;2022-08-18T19:43:00;5.25;;;3.75;;